sensor_id;sensor_type;location;lat;lon;timestamp;P1;durP1;ratioP1;P2;durP2;ratioP2
19026;SDS011;9646;52.034;5.554;2023-05-07T00:00:55;3.55;;;2.60;;
19026;SDS011;9646;52.034;5.554;2023-05-07T00:03:24;3.10;;;2.47;;
19026;SDS011;9646;52.034;5.554;2023-05-07T00:05:52;3.42;;;2.65;;
19026;SDS011;9646;52.034;5.554;2023-05-07T00:08:19;2.50;;;2.28;;
19026;SDS011;9646;52.034;5.554;2023-05-07T00:10:46;3.15;;;2.38;;
19026;SDS011;9646;52.034;5.554;2023-05-07T00:13:13;3.53;;;2.55;;
19026;SDS011;9646;52.034;5.554;2023-05-07T00:15:42;3.70;;;2.80;;
19026;SDS011;9646;52.034;5.554;2023-05-07T00:18:09;3.40;;;2.65;;
19026;SDS011;9646;52.034;5.554;2023-05-07T00:20:36;3.55;;;2.63;;
19026;SDS011;9646;52.034;5.554;2023-05-07T00:23:03;4.28;;;2.90;;
19026;SDS011;9646;52.034;5.554;2023-05-07T00:25:30;3.55;;;2.92;;
19026;SDS011;9646;52.034;5.554;2023-05-07T00:27:57;4.53;;;2.92;;
19026;SDS011;9646;52.034;5.554;2023-05-07T00:30:28;4.90;;;3.03;;
19026;SDS011;9646;52.034;5.554;2023-05-07T00:32:57;4.03;;;3.13;;
19026;SDS011;9646;52.034;5.554;2023-05-07T00:35:24;5.13;;;3.45;;
19026;SDS011;9646;52.034;5.554;2023-05-07T00:37:51;3.80;;;2.97;;
19026;SDS011;9646;52.034;5.554;2023-05-07T00:40:18;3.65;;;3.15;;
19026;SDS011;9646;52.034;5.554;2023-05-07T00:42:45;4.65;;;3.38;;
19026;SDS011;9646;52.034;5.554;2023-05-07T00:45:13;3.83;;;3.13;;
19026;SDS011;9646;52.034;5.554;2023-05-07T00:47:41;4.75;;;3.38;;
19026;SDS011;9646;52.034;5.554;2023-05-07T00:50:09;3.97;;;3.28;;
19026;SDS011;9646;52.034;5.554;2023-05-07T00:52:37;4.25;;;3.28;;
19026;SDS011;9646;52.034;5.554;2023-05-07T00:55:05;3.75;;;3.15;;
19026;SDS011;9646;52.034;5.554;2023-05-07T00:57:33;4.15;;;3.40;;
19026;SDS011;9646;52.034;5.554;2023-05-07T01:00:03;5.03;;;3.30;;
19026;SDS011;9646;52.034;5.554;2023-05-07T01:02:30;5.30;;;3.53;;
19026;SDS011;9646;52.034;5.554;2023-05-07T01:04:57;5.03;;;3.63;;
19026;SDS011;9646;52.034;5.554;2023-05-07T01:07:26;5.40;;;3.30;;
19026;SDS011;9646;52.034;5.554;2023-05-07T01:09:54;3.80;;;3.33;;
19026;SDS011;9646;52.034;5.554;2023-05-07T01:12:21;4.30;;;3.80;;
19026;SDS011;9646;52.034;5.554;2023-05-07T01:14:48;5.00;;;4.07;;
19026;SDS011;9646;52.034;5.554;2023-05-07T01:17:15;5.22;;;3.58;;
19026;SDS011;9646;52.034;5.554;2023-05-07T01:19:42;6.70;;;4.53;;
19026;SDS011;9646;52.034;5.554;2023-05-07T01:22:10;5.00;;;3.90;;
19026;SDS011;9646;52.034;5.554;2023-05-07T01:24:39;5.18;;;3.60;;
19026;SDS011;9646;52.034;5.554;2023-05-07T01:27:06;4.32;;;3.85;;
19026;SDS011;9646;52.034;5.554;2023-05-07T01:29:33;5.05;;;4.32;;
19026;SDS011;9646;52.034;5.554;2023-05-07T01:32:00;5.68;;;4.25;;
19026;SDS011;9646;52.034;5.554;2023-05-07T01:34:28;6.50;;;4.25;;
19026;SDS011;9646;52.034;5.554;2023-05-07T01:36:56;4.97;;;3.88;;
19026;SDS011;9646;52.034;5.554;2023-05-07T01:39:25;5.63;;;3.85;;
19026;SDS011;9646;52.034;5.554;2023-05-07T01:41:54;5.57;;;3.65;;
19026;SDS011;9646;52.034;5.554;2023-05-07T01:44:21;4.78;;;3.60;;
19026;SDS011;9646;52.034;5.554;2023-05-07T01:46:49;5.88;;;3.92;;
19026;SDS011;9646;52.034;5.554;2023-05-07T01:49:16;4.22;;;3.80;;
19026;SDS011;9646;52.034;5.554;2023-05-07T01:51:43;5.35;;;3.97;;
19026;SDS011;9646;52.034;5.554;2023-05-07T01:54:10;6.95;;;4.00;;
19026;SDS011;9646;52.034;5.554;2023-05-07T01:56:37;4.88;;;4.25;;
19026;SDS011;9646;52.034;5.554;2023-05-07T01:59:06;7.57;;;4.90;;
19026;SDS011;9646;52.034;5.554;2023-05-07T02:01:33;7.68;;;4.05;;
19026;SDS011;9646;52.034;5.554;2023-05-07T02:04:00;6.07;;;4.32;;
19026;SDS011;9646;52.034;5.554;2023-05-07T02:06:27;6.38;;;4.82;;
19026;SDS011;9646;52.034;5.554;2023-05-07T02:08:54;5.80;;;4.72;;
19026;SDS011;9646;52.034;5.554;2023-05-07T02:11:21;5.53;;;4.78;;
19026;SDS011;9646;52.034;5.554;2023-05-07T02:13:48;6.43;;;5.43;;
19026;SDS011;9646;52.034;5.554;2023-05-07T02:16:16;6.05;;;4.72;;
19026;SDS011;9646;52.034;5.554;2023-05-07T02:18:44;7.20;;;5.00;;
19026;SDS011;9646;52.034;5.554;2023-05-07T02:21:11;7.75;;;5.18;;
19026;SDS011;9646;52.034;5.554;2023-05-07T02:23:38;7.13;;;5.45;;
19026;SDS011;9646;52.034;5.554;2023-05-07T02:26:05;8.00;;;5.20;;
19026;SDS011;9646;52.034;5.554;2023-05-07T02:28:33;6.60;;;5.25;;
19026;SDS011;9646;52.034;5.554;2023-05-07T02:31:01;6.47;;;5.00;;
19026;SDS011;9646;52.034;5.554;2023-05-07T02:33:30;7.88;;;5.65;;
19026;SDS011;9646;52.034;5.554;2023-05-07T02:36:04;7.38;;;5.55;;
19026;SDS011;9646;52.034;5.554;2023-05-07T02:38:31;6.32;;;5.40;;
19026;SDS011;9646;52.034;5.554;2023-05-07T02:40:58;4.75;;;4.30;;
19026;SDS011;9646;52.034;5.554;2023-05-07T02:43:26;6.93;;;4.53;;
19026;SDS011;9646;52.034;5.554;2023-05-07T02:45:59;6.38;;;5.55;;
19026;SDS011;9646;52.034;5.554;2023-05-07T02:48:27;6.00;;;5.40;;
19026;SDS011;9646;52.034;5.554;2023-05-07T02:50:55;5.88;;;5.05;;
19026;SDS011;9646;52.034;5.554;2023-05-07T02:53:22;7.07;;;5.65;;
19026;SDS011;9646;52.034;5.554;2023-05-07T02:55:51;6.05;;;5.22;;
19026;SDS011;9646;52.034;5.554;2023-05-07T02:58:18;5.85;;;5.25;;
19026;SDS011;9646;52.034;5.554;2023-05-07T03:00:45;6.10;;;5.45;;
19026;SDS011;9646;52.034;5.554;2023-05-07T03:03:12;7.32;;;5.20;;
19026;SDS011;9646;52.034;5.554;2023-05-07T03:05:39;6.80;;;5.55;;
19026;SDS011;9646;52.034;5.554;2023-05-07T03:08:07;7.30;;;5.40;;
19026;SDS011;9646;52.034;5.554;2023-05-07T03:10:35;6.47;;;5.43;;
19026;SDS011;9646;52.034;5.554;2023-05-07T03:13:02;7.13;;;6.05;;
19026;SDS011;9646;52.034;5.554;2023-05-07T03:15:29;6.10;;;5.55;;
19026;SDS011;9646;52.034;5.554;2023-05-07T03:17:56;6.40;;;4.95;;
19026;SDS011;9646;52.034;5.554;2023-05-07T03:20:24;7.00;;;5.35;;
19026;SDS011;9646;52.034;5.554;2023-05-07T03:22:51;6.70;;;5.82;;
19026;SDS011;9646;52.034;5.554;2023-05-07T03:25:19;7.00;;;5.47;;
19026;SDS011;9646;52.034;5.554;2023-05-07T03:27:46;7.57;;;5.82;;
19026;SDS011;9646;52.034;5.554;2023-05-07T03:30:13;7.70;;;5.43;;
19026;SDS011;9646;52.034;5.554;2023-05-07T03:32:40;5.82;;;5.22;;
19026;SDS011;9646;52.034;5.554;2023-05-07T03:35:07;5.97;;;5.38;;
19026;SDS011;9646;52.034;5.554;2023-05-07T03:37:34;8.40;;;5.47;;
19026;SDS011;9646;52.034;5.554;2023-05-07T03:40:02;5.78;;;5.22;;
19026;SDS011;9646;52.034;5.554;2023-05-07T03:42:30;6.90;;;5.90;;
19026;SDS011;9646;52.034;5.554;2023-05-07T03:44:57;5.82;;;5.18;;
19026;SDS011;9646;52.034;5.554;2023-05-07T03:47:24;6.75;;;5.00;;
19026;SDS011;9646;52.034;5.554;2023-05-07T03:49:51;6.25;;;5.60;;
19026;SDS011;9646;52.034;5.554;2023-05-07T03:52:19;7.75;;;5.40;;
19026;SDS011;9646;52.034;5.554;2023-05-07T03:54:50;6.68;;;5.25;;
19026;SDS011;9646;52.034;5.554;2023-05-07T03:57:17;6.93;;;5.80;;
19026;SDS011;9646;52.034;5.554;2023-05-07T03:59:46;6.53;;;5.43;;
19026;SDS011;9646;52.034;5.554;2023-05-07T04:02:13;6.95;;;5.28;;
19026;SDS011;9646;52.034;5.554;2023-05-07T04:04:40;7.78;;;5.18;;
19026;SDS011;9646;52.034;5.554;2023-05-07T04:07:07;5.97;;;5.38;;
19026;SDS011;9646;52.034;5.554;2023-05-07T04:09:34;6.45;;;5.13;;
19026;SDS011;9646;52.034;5.554;2023-05-07T04:12:02;6.93;;;6.15;;
19026;SDS011;9646;52.034;5.554;2023-05-07T04:14:29;6.63;;;5.72;;
19026;SDS011;9646;52.034;5.554;2023-05-07T04:16:58;6.50;;;5.65;;
19026;SDS011;9646;52.034;5.554;2023-05-07T04:19:25;6.10;;;5.50;;
19026;SDS011;9646;52.034;5.554;2023-05-07T04:21:52;7.90;;;5.82;;
19026;SDS011;9646;52.034;5.554;2023-05-07T04:24:19;6.15;;;5.55;;
19026;SDS011;9646;52.034;5.554;2023-05-07T04:26:46;8.95;;;5.30;;
19026;SDS011;9646;52.034;5.554;2023-05-07T04:29:13;6.43;;;5.35;;
19026;SDS011;9646;52.034;5.554;2023-05-07T04:31:40;6.43;;;5.38;;
19026;SDS011;9646;52.034;5.554;2023-05-07T04:34:10;6.07;;;5.18;;
19026;SDS011;9646;52.034;5.554;2023-05-07T04:36:38;6.50;;;5.20;;
19026;SDS011;9646;52.034;5.554;2023-05-07T04:39:05;5.55;;;5.00;;
19026;SDS011;9646;52.034;5.554;2023-05-07T04:41:33;6.55;;;5.25;;
19026;SDS011;9646;52.034;5.554;2023-05-07T04:44:01;6.95;;;5.43;;
19026;SDS011;9646;52.034;5.554;2023-05-07T04:46:29;6.68;;;5.30;;
19026;SDS011;9646;52.034;5.554;2023-05-07T04:48:56;6.38;;;5.18;;
19026;SDS011;9646;52.034;5.554;2023-05-07T04:51:25;6.03;;;5.43;;
19026;SDS011;9646;52.034;5.554;2023-05-07T04:53:53;5.38;;;4.88;;
19026;SDS011;9646;52.034;5.554;2023-05-07T04:56:20;5.22;;;4.70;;
19026;SDS011;9646;52.034;5.554;2023-05-07T04:58:47;6.18;;;5.03;;
19026;SDS011;9646;52.034;5.554;2023-05-07T05:01:14;6.38;;;5.28;;
19026;SDS011;9646;52.034;5.554;2023-05-07T05:03:41;7.45;;;6.10;;
19026;SDS011;9646;52.034;5.554;2023-05-07T05:06:09;6.68;;;4.95;;
19026;SDS011;9646;52.034;5.554;2023-05-07T05:08:38;6.65;;;5.82;;
19026;SDS011;9646;52.034;5.554;2023-05-07T05:11:05;6.80;;;5.63;;
19026;SDS011;9646;52.034;5.554;2023-05-07T05:13:32;7.40;;;4.72;;
19026;SDS011;9646;52.034;5.554;2023-05-07T05:15:59;4.80;;;4.30;;
19026;SDS011;9646;52.034;5.554;2023-05-07T05:18:26;6.85;;;6.03;;
19026;SDS011;9646;52.034;5.554;2023-05-07T05:20:53;6.40;;;5.70;;
19026;SDS011;9646;52.034;5.554;2023-05-07T05:23:20;6.47;;;4.72;;
19026;SDS011;9646;52.034;5.554;2023-05-07T05:25:48;7.47;;;6.18;;
19026;SDS011;9646;52.034;5.554;2023-05-07T05:28:15;7.18;;;5.72;;
19026;SDS011;9646;52.034;5.554;2023-05-07T05:30:42;6.53;;;5.63;;
19026;SDS011;9646;52.034;5.554;2023-05-07T05:33:09;6.15;;;5.50;;
19026;SDS011;9646;52.034;5.554;2023-05-07T05:35:37;6.82;;;5.60;;
19026;SDS011;9646;52.034;5.554;2023-05-07T05:38:04;7.72;;;5.70;;
19026;SDS011;9646;52.034;5.554;2023-05-07T05:40:31;6.63;;;5.60;;
19026;SDS011;9646;52.034;5.554;2023-05-07T05:42:59;7.97;;;6.20;;
19026;SDS011;9646;52.034;5.554;2023-05-07T05:45:26;7.47;;;5.65;;
19026;SDS011;9646;52.034;5.554;2023-05-07T05:47:55;6.53;;;4.82;;
19026;SDS011;9646;52.034;5.554;2023-05-07T05:50:22;6.85;;;6.13;;
19026;SDS011;9646;52.034;5.554;2023-05-07T05:52:49;6.68;;;5.32;;
19026;SDS011;9646;52.034;5.554;2023-05-07T05:55:16;6.35;;;5.68;;
19026;SDS011;9646;52.034;5.554;2023-05-07T05:57:43;6.88;;;5.53;;
19026;SDS011;9646;52.034;5.554;2023-05-07T06:00:12;7.25;;;6.25;;
19026;SDS011;9646;52.034;5.554;2023-05-07T06:02:39;6.32;;;5.72;;
19026;SDS011;9646;52.034;5.554;2023-05-07T06:05:07;7.13;;;5.57;;
19026;SDS011;9646;52.034;5.554;2023-05-07T06:07:34;7.38;;;6.20;;
19026;SDS011;9646;52.034;5.554;2023-05-07T06:10:02;6.40;;;5.70;;
19026;SDS011;9646;52.034;5.554;2023-05-07T06:12:29;7.35;;;5.85;;
19026;SDS011;9646;52.034;5.554;2023-05-07T06:14:56;6.22;;;5.35;;
19026;SDS011;9646;52.034;5.554;2023-05-07T06:17:24;6.20;;;5.03;;
19026;SDS011;9646;52.034;5.554;2023-05-07T06:19:51;6.50;;;5.78;;
19026;SDS011;9646;52.034;5.554;2023-05-07T06:22:18;7.20;;;5.95;;
19026;SDS011;9646;52.034;5.554;2023-05-07T06:24:45;7.53;;;6.05;;
19026;SDS011;9646;52.034;5.554;2023-05-07T06:27:13;7.68;;;6.85;;
19026;SDS011;9646;52.034;5.554;2023-05-07T06:29:40;8.80;;;6.35;;
19026;SDS011;9646;52.034;5.554;2023-05-07T06:32:07;6.30;;;5.70;;
19026;SDS011;9646;52.034;5.554;2023-05-07T06:34:35;7.28;;;5.60;;
19026;SDS011;9646;52.034;5.554;2023-05-07T06:37:02;7.75;;;6.28;;
19026;SDS011;9646;52.034;5.554;2023-05-07T06:39:30;6.38;;;5.75;;
19026;SDS011;9646;52.034;5.554;2023-05-07T06:41:57;9.73;;;7.63;;
19026;SDS011;9646;52.034;5.554;2023-05-07T06:44:24;8.10;;;6.38;;
19026;SDS011;9646;52.034;5.554;2023-05-07T06:46:51;6.65;;;5.95;;
19026;SDS011;9646;52.034;5.554;2023-05-07T06:49:18;7.05;;;6.00;;
19026;SDS011;9646;52.034;5.554;2023-05-07T06:51:46;6.97;;;5.75;;
19026;SDS011;9646;52.034;5.554;2023-05-07T06:54:13;8.35;;;6.28;;
19026;SDS011;9646;52.034;5.554;2023-05-07T06:56:41;6.97;;;6.28;;
19026;SDS011;9646;52.034;5.554;2023-05-07T06:59:08;6.72;;;6.03;;
19026;SDS011;9646;52.034;5.554;2023-05-07T07:01:35;8.73;;;6.28;;
19026;SDS011;9646;52.034;5.554;2023-05-07T07:04:02;7.78;;;6.45;;
19026;SDS011;9646;52.034;5.554;2023-05-07T07:06:29;5.78;;;5.28;;
19026;SDS011;9646;52.034;5.554;2023-05-07T07:08:58;4.35;;;3.92;;
19026;SDS011;9646;52.034;5.554;2023-05-07T07:11:25;6.22;;;5.20;;
19026;SDS011;9646;52.034;5.554;2023-05-07T07:13:52;7.30;;;5.95;;
19026;SDS011;9646;52.034;5.554;2023-05-07T07:16:20;5.85;;;5.25;;
19026;SDS011;9646;52.034;5.554;2023-05-07T07:18:47;7.00;;;5.90;;
19026;SDS011;9646;52.034;5.554;2023-05-07T07:21:14;8.23;;;6.43;;
19026;SDS011;9646;52.034;5.554;2023-05-07T07:23:41;7.13;;;6.30;;
19026;SDS011;9646;52.034;5.554;2023-05-07T07:26:09;7.93;;;6.22;;
19026;SDS011;9646;52.034;5.554;2023-05-07T07:28:41;5.10;;;4.45;;
19026;SDS011;9646;52.034;5.554;2023-05-07T07:31:08;6.65;;;5.70;;
19026;SDS011;9646;52.034;5.554;2023-05-07T07:33:35;5.07;;;4.38;;
19026;SDS011;9646;52.034;5.554;2023-05-07T07:36:03;7.65;;;3.05;;
19026;SDS011;9646;52.034;5.554;2023-05-07T07:38:30;5.38;;;4.28;;
19026;SDS011;9646;52.034;5.554;2023-05-07T07:40:57;5.20;;;2.42;;
19026;SDS011;9646;52.034;5.554;2023-05-07T07:43:25;7.80;;;2.88;;
19026;SDS011;9646;52.034;5.554;2023-05-07T07:45:52;4.47;;;2.30;;
19026;SDS011;9646;52.034;5.554;2023-05-07T07:48:19;6.55;;;2.80;;
19026;SDS011;9646;52.034;5.554;2023-05-07T07:50:48;4.03;;;3.03;;
19026;SDS011;9646;52.034;5.554;2023-05-07T07:53:16;6.30;;;2.92;;
19026;SDS011;9646;52.034;5.554;2023-05-07T07:55:43;9.32;;;3.20;;
19026;SDS011;9646;52.034;5.554;2023-05-07T07:58:10;6.57;;;3.90;;
19026;SDS011;9646;52.034;5.554;2023-05-07T08:00:38;5.18;;;3.90;;
19026;SDS011;9646;52.034;5.554;2023-05-07T08:03:05;5.78;;;3.58;;
19026;SDS011;9646;52.034;5.554;2023-05-07T08:05:32;7.68;;;3.58;;
19026;SDS011;9646;52.034;5.554;2023-05-07T08:08:00;23.25;;;7.43;;
19026;SDS011;9646;52.034;5.554;2023-05-07T08:10:27;10.43;;;4.82;;
19026;SDS011;9646;52.034;5.554;2023-05-07T08:12:54;11.13;;;5.00;;
19026;SDS011;9646;52.034;5.554;2023-05-07T08:15:21;9.85;;;5.07;;
19026;SDS011;9646;52.034;5.554;2023-05-07T08:17:50;12.20;;;5.85;;
19026;SDS011;9646;52.034;5.554;2023-05-07T08:20:17;10.23;;;5.45;;
19026;SDS011;9646;52.034;5.554;2023-05-07T08:22:44;13.80;;;5.72;;
19026;SDS011;9646;52.034;5.554;2023-05-07T08:25:11;14.48;;;6.00;;
19026;SDS011;9646;52.034;5.554;2023-05-07T08:27:38;16.13;;;5.80;;
19026;SDS011;9646;52.034;5.554;2023-05-07T08:30:06;14.35;;;5.50;;
19026;SDS011;9646;52.034;5.554;2023-05-07T08:32:33;15.73;;;6.00;;
19026;SDS011;9646;52.034;5.554;2023-05-07T08:35:01;19.85;;;6.55;;
19026;SDS011;9646;52.034;5.554;2023-05-07T08:37:28;16.33;;;6.57;;
19026;SDS011;9646;52.034;5.554;2023-05-07T08:39:55;14.55;;;6.50;;
19026;SDS011;9646;52.034;5.554;2023-05-07T08:42:23;13.40;;;6.32;;
19026;SDS011;9646;52.034;5.554;2023-05-07T08:44:51;12.07;;;6.57;;
19026;SDS011;9646;52.034;5.554;2023-05-07T08:47:19;13.70;;;8.23;;
19026;SDS011;9646;52.034;5.554;2023-05-07T08:49:47;12.75;;;7.32;;
19026;SDS011;9646;52.034;5.554;2023-05-07T08:52:16;15.60;;;8.48;;
19026;SDS011;9646;52.034;5.554;2023-05-07T08:54:44;12.88;;;8.70;;
19026;SDS011;9646;52.034;5.554;2023-05-07T08:57:12;12.35;;;6.68;;
19026;SDS011;9646;52.034;5.554;2023-05-07T08:59:39;9.43;;;6.05;;
19026;SDS011;9646;52.034;5.554;2023-05-07T09:02:07;8.80;;;5.10;;
19026;SDS011;9646;52.034;5.554;2023-05-07T09:04:36;9.27;;;5.88;;
19026;SDS011;9646;52.034;5.554;2023-05-07T09:07:03;8.82;;;5.88;;
19026;SDS011;9646;52.034;5.554;2023-05-07T09:09:33;8.38;;;4.75;;
19026;SDS011;9646;52.034;5.554;2023-05-07T09:12:00;10.70;;;4.97;;
19026;SDS011;9646;52.034;5.554;2023-05-07T09:14:28;7.95;;;4.95;;
19026;SDS011;9646;52.034;5.554;2023-05-07T09:16:56;9.80;;;4.35;;
19026;SDS011;9646;52.034;5.554;2023-05-07T09:19:23;8.98;;;4.30;;
19026;SDS011;9646;52.034;5.554;2023-05-07T09:21:55;8.77;;;4.93;;
19026;SDS011;9646;52.034;5.554;2023-05-07T09:24:24;7.95;;;5.22;;
19026;SDS011;9646;52.034;5.554;2023-05-07T09:26:53;9.02;;;5.30;;
19026;SDS011;9646;52.034;5.554;2023-05-07T09:29:20;9.68;;;5.72;;
19026;SDS011;9646;52.034;5.554;2023-05-07T09:31:47;8.70;;;5.95;;
19026;SDS011;9646;52.034;5.554;2023-05-07T09:34:14;9.98;;;5.28;;
19026;SDS011;9646;52.034;5.554;2023-05-07T09:36:41;8.25;;;5.85;;
19026;SDS011;9646;52.034;5.554;2023-05-07T09:39:08;8.30;;;4.93;;
19026;SDS011;9646;52.034;5.554;2023-05-07T09:41:42;6.97;;;4.10;;
19026;SDS011;9646;52.034;5.554;2023-05-07T09:44:11;7.97;;;4.85;;
19026;SDS011;9646;52.034;5.554;2023-05-07T09:46:39;7.53;;;4.15;;
19026;SDS011;9646;52.034;5.554;2023-05-07T09:49:09;9.65;;;6.88;;
19026;SDS011;9646;52.034;5.554;2023-05-07T09:51:41;8.45;;;7.20;;
19026;SDS011;9646;52.034;5.554;2023-05-07T09:54:08;9.50;;;6.38;;
19026;SDS011;9646;52.034;5.554;2023-05-07T09:56:36;8.95;;;6.95;;
19026;SDS011;9646;52.034;5.554;2023-05-07T09:59:06;7.80;;;4.30;;
19026;SDS011;9646;52.034;5.554;2023-05-07T10:01:35;8.50;;;5.18;;
19026;SDS011;9646;52.034;5.554;2023-05-07T10:04:02;7.53;;;5.53;;
19026;SDS011;9646;52.034;5.554;2023-05-07T10:06:29;8.75;;;5.28;;
19026;SDS011;9646;52.034;5.554;2023-05-07T10:08:56;8.43;;;6.70;;
19026;SDS011;9646;52.034;5.554;2023-05-07T10:11:24;6.88;;;5.25;;
19026;SDS011;9646;52.034;5.554;2023-05-07T10:13:51;7.40;;;5.18;;
19026;SDS011;9646;52.034;5.554;2023-05-07T10:16:19;7.40;;;4.78;;
19026;SDS011;9646;52.034;5.554;2023-05-07T10:18:47;7.45;;;4.47;;
19026;SDS011;9646;52.034;5.554;2023-05-07T10:21:16;6.57;;;4.70;;
19026;SDS011;9646;52.034;5.554;2023-05-07T10:23:44;8.13;;;5.40;;
19026;SDS011;9646;52.034;5.554;2023-05-07T10:26:11;5.78;;;4.45;;
19026;SDS011;9646;52.034;5.554;2023-05-07T10:28:41;10.65;;;5.75;;
19026;SDS011;9646;52.034;5.554;2023-05-07T10:31:11;6.00;;;4.68;;
19026;SDS011;9646;52.034;5.554;2023-05-07T10:33:41;6.50;;;4.05;;
19026;SDS011;9646;52.034;5.554;2023-05-07T10:36:11;5.68;;;4.13;;
19026;SDS011;9646;52.034;5.554;2023-05-07T10:38:38;7.25;;;4.65;;
19026;SDS011;9646;52.034;5.554;2023-05-07T10:41:06;8.25;;;4.30;;
19026;SDS011;9646;52.034;5.554;2023-05-07T10:43:38;5.80;;;4.65;;
19026;SDS011;9646;52.034;5.554;2023-05-07T10:46:09;10.55;;;4.78;;
19026;SDS011;9646;52.034;5.554;2023-05-07T10:48:47;6.55;;;4.32;;
19026;SDS011;9646;52.034;5.554;2023-05-07T10:51:34;6.72;;;4.22;;
19026;SDS011;9646;52.034;5.554;2023-05-07T10:54:20;6.38;;;4.32;;
19026;SDS011;9646;52.034;5.554;2023-05-07T10:56:48;7.15;;;4.75;;
19026;SDS011;9646;52.034;5.554;2023-05-07T10:59:30;5.60;;;3.25;;
19026;SDS011;9646;52.034;5.554;2023-05-07T11:01:59;4.03;;;3.00;;
19026;SDS011;9646;52.034;5.554;2023-05-07T11:04:28;4.93;;;3.38;;
19026;SDS011;9646;52.034;5.554;2023-05-07T11:09:55;4.28;;;3.20;;
19026;SDS011;9646;52.034;5.554;2023-05-07T11:12:46;3.97;;;2.72;;
19026;SDS011;9646;52.034;5.554;2023-05-07T11:15:13;16.55;;;10.30;;
19026;SDS011;9646;52.034;5.554;2023-05-07T11:17:52;9.35;;;6.95;;
19026;SDS011;9646;52.034;5.554;2023-05-07T11:20:19;11.52;;;5.35;;
19026;SDS011;9646;52.034;5.554;2023-05-07T11:22:46;5.57;;;3.40;;
19026;SDS011;9646;52.034;5.554;2023-05-07T11:25:18;3.47;;;2.63;;
19026;SDS011;9646;52.034;5.554;2023-05-07T11:27:45;4.75;;;3.05;;
19026;SDS011;9646;52.034;5.554;2023-05-07T11:30:16;5.03;;;3.50;;
19026;SDS011;9646;52.034;5.554;2023-05-07T11:32:44;5.68;;;3.30;;
19026;SDS011;9646;52.034;5.554;2023-05-07T11:35:13;7.50;;;3.67;;
19026;SDS011;9646;52.034;5.554;2023-05-07T11:37:42;3.67;;;2.65;;
19026;SDS011;9646;52.034;5.554;2023-05-07T11:40:09;5.03;;;3.28;;
19026;SDS011;9646;52.034;5.554;2023-05-07T11:42:40;4.72;;;2.67;;
19026;SDS011;9646;52.034;5.554;2023-05-07T11:45:08;3.78;;;2.58;;
19026;SDS011;9646;52.034;5.554;2023-05-07T11:47:35;4.40;;;2.55;;
19026;SDS011;9646;52.034;5.554;2023-05-07T11:50:03;3.83;;;2.83;;
19026;SDS011;9646;52.034;5.554;2023-05-07T11:52:31;4.82;;;3.00;;
19026;SDS011;9646;52.034;5.554;2023-05-07T11:54:59;3.88;;;2.30;;
19026;SDS011;9646;52.034;5.554;2023-05-07T11:57:27;3.25;;;2.70;;
19026;SDS011;9646;52.034;5.554;2023-05-07T11:59:55;3.00;;;2.50;;
19026;SDS011;9646;52.034;5.554;2023-05-07T12:02:23;6.22;;;3.13;;
19026;SDS011;9646;52.034;5.554;2023-05-07T12:04:50;4.88;;;2.60;;
19026;SDS011;9646;52.034;5.554;2023-05-07T12:07:17;5.00;;;3.10;;
19026;SDS011;9646;52.034;5.554;2023-05-07T12:09:45;5.88;;;3.47;;
19026;SDS011;9646;52.034;5.554;2023-05-07T12:12:12;6.07;;;3.08;;
19026;SDS011;9646;52.034;5.554;2023-05-07T12:14:40;3.60;;;2.75;;
19026;SDS011;9646;52.034;5.554;2023-05-07T12:17:09;2.83;;;2.13;;
19026;SDS011;9646;52.034;5.554;2023-05-07T12:19:37;4.38;;;2.80;;
19026;SDS011;9646;52.034;5.554;2023-05-07T12:22:04;2.65;;;2.45;;
19026;SDS011;9646;52.034;5.554;2023-05-07T12:24:42;4.18;;;2.60;;
19026;SDS011;9646;52.034;5.554;2023-05-07T12:27:09;4.93;;;2.70;;
19026;SDS011;9646;52.034;5.554;2023-05-07T12:29:36;5.68;;;2.92;;
19026;SDS011;9646;52.034;5.554;2023-05-07T12:32:04;5.40;;;2.80;;
19026;SDS011;9646;52.034;5.554;2023-05-07T12:34:33;6.63;;;3.25;;
19026;SDS011;9646;52.034;5.554;2023-05-07T12:37:01;3.13;;;2.40;;
19026;SDS011;9646;52.034;5.554;2023-05-07T12:39:29;4.15;;;2.70;;
19026;SDS011;9646;52.034;5.554;2023-05-07T12:41:59;3.35;;;2.53;;
19026;SDS011;9646;52.034;5.554;2023-05-07T12:44:28;3.08;;;2.70;;
19026;SDS011;9646;52.034;5.554;2023-05-07T12:46:56;6.20;;;4.80;;
19026;SDS011;9646;52.034;5.554;2023-05-07T12:49:23;4.28;;;3.88;;
19026;SDS011;9646;52.034;5.554;2023-05-07T12:51:52;4.82;;;3.38;;
19026;SDS011;9646;52.034;5.554;2023-05-07T12:54:29;3.70;;;2.75;;
19026;SDS011;9646;52.034;5.554;2023-05-07T12:57:00;3.42;;;2.90;;
19026;SDS011;9646;52.034;5.554;2023-05-07T12:59:30;3.60;;;3.15;;
19026;SDS011;9646;52.034;5.554;2023-05-07T13:01:57;4.18;;;2.88;;
19026;SDS011;9646;52.034;5.554;2023-05-07T13:04:24;5.55;;;3.83;;
19026;SDS011;9646;52.034;5.554;2023-05-07T13:06:53;8.35;;;7.20;;
19026;SDS011;9646;52.034;5.554;2023-05-07T13:09:20;7.18;;;6.32;;
19026;SDS011;9646;52.034;5.554;2023-05-07T13:11:47;14.80;;;11.75;;
19026;SDS011;9646;52.034;5.554;2023-05-07T13:14:14;4.63;;;3.95;;
19026;SDS011;9646;52.034;5.554;2023-05-07T13:16:41;6.95;;;4.97;;
19026;SDS011;9646;52.034;5.554;2023-05-07T13:19:09;4.45;;;3.75;;
19026;SDS011;9646;52.034;5.554;2023-05-07T13:21:36;4.68;;;3.65;;
19026;SDS011;9646;52.034;5.554;2023-05-07T13:24:04;4.45;;;3.40;;
19026;SDS011;9646;52.034;5.554;2023-05-07T13:26:31;6.50;;;4.93;;
19026;SDS011;9646;52.034;5.554;2023-05-07T13:28:58;7.05;;;5.32;;
19026;SDS011;9646;52.034;5.554;2023-05-07T13:31:26;5.22;;;4.32;;
19026;SDS011;9646;52.034;5.554;2023-05-07T13:33:53;9.73;;;8.30;;
19026;SDS011;9646;52.034;5.554;2023-05-07T13:36:21;8.18;;;6.30;;
19026;SDS011;9646;52.034;5.554;2023-05-07T13:38:48;8.07;;;5.90;;
19026;SDS011;9646;52.034;5.554;2023-05-07T13:41:16;7.55;;;6.75;;
19026;SDS011;9646;52.034;5.554;2023-05-07T13:43:44;8.85;;;5.65;;
19026;SDS011;9646;52.034;5.554;2023-05-07T13:46:11;6.50;;;5.55;;
19026;SDS011;9646;52.034;5.554;2023-05-07T13:48:38;5.43;;;4.60;;
19026;SDS011;9646;52.034;5.554;2023-05-07T13:51:05;4.93;;;4.45;;
19026;SDS011;9646;52.034;5.554;2023-05-07T13:53:32;7.75;;;5.07;;
19026;SDS011;9646;52.034;5.554;2023-05-07T13:56:00;6.90;;;5.43;;
19026;SDS011;9646;52.034;5.554;2023-05-07T13:58:30;6.05;;;5.32;;
19026;SDS011;9646;52.034;5.554;2023-05-07T14:00:58;8.88;;;6.07;;
19026;SDS011;9646;52.034;5.554;2023-05-07T14:03:25;6.07;;;5.18;;
19026;SDS011;9646;52.034;5.554;2023-05-07T14:05:52;7.88;;;6.40;;
19026;SDS011;9646;52.034;5.554;2023-05-07T14:08:19;5.30;;;4.45;;
19026;SDS011;9646;52.034;5.554;2023-05-07T14:10:46;9.10;;;6.78;;
19026;SDS011;9646;52.034;5.554;2023-05-07T14:13:13;6.60;;;5.90;;
19026;SDS011;9646;52.034;5.554;2023-05-07T14:15:41;7.45;;;6.10;;
19026;SDS011;9646;52.034;5.554;2023-05-07T14:18:11;7.63;;;5.00;;
19026;SDS011;9646;52.034;5.554;2023-05-07T14:20:38;7.38;;;5.97;;
19026;SDS011;9646;52.034;5.554;2023-05-07T14:23:05;8.95;;;7.00;;
19026;SDS011;9646;52.034;5.554;2023-05-07T14:25:32;10.52;;;7.22;;
19026;SDS011;9646;52.034;5.554;2023-05-07T14:27:59;12.13;;;9.88;;
19026;SDS011;9646;52.034;5.554;2023-05-07T14:30:26;10.38;;;7.22;;
19026;SDS011;9646;52.034;5.554;2023-05-07T14:32:55;9.20;;;7.70;;
19026;SDS011;9646;52.034;5.554;2023-05-07T14:35:22;7.22;;;6.53;;
19026;SDS011;9646;52.034;5.554;2023-05-07T14:37:49;5.63;;;5.05;;
19026;SDS011;9646;52.034;5.554;2023-05-07T14:40:16;7.28;;;5.78;;
19026;SDS011;9646;52.034;5.554;2023-05-07T14:42:43;8.90;;;6.35;;
19026;SDS011;9646;52.034;5.554;2023-05-07T14:45:10;10.13;;;6.82;;
19026;SDS011;9646;52.034;5.554;2023-05-07T14:47:37;8.35;;;7.47;;
19026;SDS011;9646;52.034;5.554;2023-05-07T14:50:07;9.40;;;7.22;;
19026;SDS011;9646;52.034;5.554;2023-05-07T14:52:34;8.43;;;7.35;;
19026;SDS011;9646;52.034;5.554;2023-05-07T14:55:01;9.40;;;7.45;;
19026;SDS011;9646;52.034;5.554;2023-05-07T14:57:29;13.77;;;9.90;;
19026;SDS011;9646;52.034;5.554;2023-05-07T14:59:59;13.80;;;9.43;;
19026;SDS011;9646;52.034;5.554;2023-05-07T15:02:26;11.15;;;9.18;;
19026;SDS011;9646;52.034;5.554;2023-05-07T15:04:54;15.15;;;11.98;;
19026;SDS011;9646;52.034;5.554;2023-05-07T15:07:22;12.07;;;9.98;;